WetterOnline ( https://www.wetteronline.de )

Wetter aktuell Aidenbach

Aktuelles Wetter: Fürstenzell (480m)

6-stündlich | Neueste Meldungen
Ortszeit Temperatur Wetter
Fr, 19.07. 20:00 26.2° C leicht bewölkt
Fr, 19.07. 14:00 27.8° C leicht bewölkt
Fr, 19.07. 8:00 20.9° C leicht bewölkt
Fr, 19.07. 2:00 19.8° C wolkenlos
Do, 18.07. 20:00 25.0° C bewölkt
Do, 18.07. 14:00 25.7° C fast wolkenlos
Do, 18.07. 8:00 17.3° C bedeckt
Do, 18.07. 2:00 18.3° C bedeckt
Ortszeit Temperatur Wetter
Fr, 19.07. 20:30 25.5° C bewölkt
Fr, 19.07. 20:20 25.5° C bewölkt
Fr, 19.07. 20:10 25.9° C bewölkt
Fr, 19.07. 20:00 26.2° C leicht bewölkt
Fr, 19.07. 19:50 26.2° C leicht bewölkt
Fr, 19.07. 19:40 26.5° C fast wolkenlos
Fr, 19.07. 19:30 27.4° C leicht bewölkt
Fr, 19.07. 19:00 28.7° C wolkig
Fr, 19.07. 18:30 28.3° C wolkig
Fr, 19.07. 18:00 28.7° C wolkig
Fr, 19.07. 17:30 28.6° C wolkig
Ortszeit Relative Feuchte Sichtweite
Fr, 19.07. 20:00 54% 60 km
Fr, 19.07. 14:00 48% 40 km
Fr, 19.07. 8:00 73% 35 km
Fr, 19.07. 2:00 77% 55 km
Do, 18.07. 20:00 64% 65 km
Do, 18.07. 14:00 53% 30 km
Do, 18.07. 8:00 96% 21 km
Do, 18.07. 2:00 82% 45 km
Ortszeit Relative Feuchte Sichtweite
Fr, 19.07. 20:30 59% 65 km
Fr, 19.07. 20:20 59% -
Fr, 19.07. 20:10 57% -
Fr, 19.07. 20:00 54% 60 km
Fr, 19.07. 19:50 54% -
Fr, 19.07. 19:40 53% -
Fr, 19.07. 19:30 50% 50 km
Fr, 19.07. 19:00 48% 40 km
Fr, 19.07. 18:30 47% >70 km
Fr, 19.07. 18:00 45% 65 km
Fr, 19.07. 17:30 46% 55 km
Ortszeit Niederschlagsmenge Niederschlagsart
Fr, 19.07. 20:00 0.0 l/m2 in 12 Std. -
Fr, 19.07. 14:00 0.0 l/m2 in 6 Std. -
Fr, 19.07. 8:00 0.0 l/m2 in 12 Std. -
Fr, 19.07. 2:00 0.0 l/m2 in 6 Std. -
Do, 18.07. 20:00 0.0 l/m2 in 12 Std. -
Do, 18.07. 14:00 0.0 l/m2 in 6 Std. -
Do, 18.07. 8:00 0.0 l/m2 in 12 Std. -
Do, 18.07. 2:00 0.0 l/m2 in 6 Std. -
Ortszeit Niederschlagsmenge Niederschlagsart
Fr, 19.07. 20:30 0.0 l/m2 in 30 Min -
Fr, 19.07. 20:20 keine Meldung -
Fr, 19.07. 20:10 keine Meldung -
Fr, 19.07. 20:00 0.0 l/m2 in 1 Std. -
Fr, 19.07. 19:50 keine Meldung -
Fr, 19.07. 19:40 keine Meldung -
Fr, 19.07. 19:30 0.0 l/m2 in 30 Min -
Fr, 19.07. 19:00 0.0 l/m2 in 1 Std. -
Fr, 19.07. 18:30 0.0 l/m2 in 30 Min -
Fr, 19.07. 18:00 0.0 l/m2 in 1 Std. -
Fr, 19.07. 17:30 0.0 l/m2 in 30 Min -
Ortszeit Stärke Spitze Richtung
km/h Bft. km/h Grad Sektor
Fr, 19.07. 20:00 11 2 26 110° O
Fr, 19.07. 14:00 7 2 30 90° O
Fr, 19.07. 8:00 7 2 14 60° NO
Fr, 19.07. 2:00 13 3 20 20° N
Do, 18.07. 20:00 7 2 25 50° NO
Do, 18.07. 14:00 13 3 28 80° O
Do, 18.07. 8:00 6 1 13 50° NO
Do, 18.07. 2:00 4 1 11 330° NW
Ortszeit Stärke Spitze Richtung
km/h Bft. km/h Grad Sektor
Fr, 19.07. 20:30 6 1 13 90° O
Fr, 19.07. 20:20 6 1 - 90° O
Fr, 19.07. 20:10 7 2 - 90° O
Fr, 19.07. 20:00 11 2 24 110° O
Fr, 19.07. 19:50 11 2 - 110° O
Fr, 19.07. 19:40 13 3 - 110° O
Fr, 19.07. 19:30 13 3 24 110° O
Fr, 19.07. 19:00 4 1 25 100° O
Fr, 19.07. 18:30 9 2 26 100° O
Fr, 19.07. 18:00 6 1 20 50° NO
Fr, 19.07. 17:30 7 2 22 60° NO
Ortszeit Untergrenze Bedeckung Gattung
total tief tief mittel hoch
Fr, 19.07. 20:00 2100 m 3/8 1/8 - - -
Fr, 19.07. 14:00 10500 m 7/8 0/8 - - -
Fr, 19.07. 8:00 9000 m 3/8 0/8 - - -
Fr, 19.07. 2:00 - 0/8 0/8 - - -
Do, 18.07. 20:00 1500 m 7/8 7/8 - - -
Do, 18.07. 14:00 10500 m 2/8 0/8 - - -
Do, 18.07. 8:00 1800 m 8/8 8/8 - - -
Do, 18.07. 2:00 1800 m 8/8 8/8 - - -
Ortszeit Bedeckungsgrad in Achtel und Wolkenuntergrenze
Fr, 19.07. 20:30 5(1500m) 7(2700m) 7(10500m)
Fr, 19.07. 20:20 5(1500m) 7(2700m) 7(10500m)
Fr, 19.07. 20:10 7
Fr, 19.07. 20:00 1(2100m) 3(8700m)
Fr, 19.07. 19:50 1(2100m) 3(8700m)
Fr, 19.07. 19:40 1
Fr, 19.07. 19:30 3(1500m) 5(10500m)
Fr, 19.07. 19:00 2(1500m) 6(10500m)
Fr, 19.07. 18:30 3(1800m) 7(10500m)
Fr, 19.07. 18:00 7(10500m)
Fr, 19.07. 17:30 3(1500m) 4(2100m) 7(10500m)
Ortszeit Luftdruck NN (hPa) Tendenz (hPa in 3 Std.)
Fr, 19.07. 20:00 1014 - 0,4
Fr, 19.07. 14:00 1017 - 1,1
Fr, 19.07. 8:00 1020 + 0,2
Fr, 19.07. 2:00 1020 0,0
Do, 18.07. 20:00 1019 - 0,2
Do, 18.07. 14:00 1020 - 0,8
Do, 18.07. 8:00 1022 + 0,3
Do, 18.07. 2:00 1023 0,0
Ortszeit Luftdruck NN (hPa) Tendenz (hPa in 3 Std.)
Fr, 19.07. 20:30 1014 0,0
Fr, 19.07. 20:20 1014 keine Meldung
Fr, 19.07. 20:10 1014 keine Meldung
Fr, 19.07. 20:00 1014 - 0,4
Fr, 19.07. 19:50 1014 keine Meldung
Fr, 19.07. 19:40 1014 keine Meldung
Fr, 19.07. 19:30 1014 - 0,9
Fr, 19.07. 19:00 1013 - 1,4
Fr, 19.07. 18:30 1014 - 1,8
Fr, 19.07. 18:00 1014 - 2,1
Fr, 19.07. 17:30 1014 - 2,3
Ortszeit Schneehöhe (cm)
Fr, 19.07. 20:00 0
Fr, 19.07. 14:00 0
Fr, 19.07. 8:00 0
Fr, 19.07. 2:00 0
Do, 18.07. 20:00 0
Do, 18.07. 14:00 0
Do, 18.07. 8:00 0
Do, 18.07. 2:00 0
Ortszeit Schneehöhe (cm)
Fr, 19.07. 20:30 0
Fr, 19.07. 20:20 0
Fr, 19.07. 20:10 -
Fr, 19.07. 20:00 0
Fr, 19.07. 19:50 0
Fr, 19.07. 19:40 -
Fr, 19.07. 19:30 0
Fr, 19.07. 19:00 0
Fr, 19.07. 18:30 0
Fr, 19.07. 18:00 0
Fr, 19.07. 17:30 0
Link zu dieser Seite / Seite empfehlen

Das Wetter in ...